SBU123 TFFG-TFFJ
Flight info
| Callsign | SBU123 |
|---|---|
| Flight time | 0h 9m |
| Altitude | 3000 |
| Route | PJM |
| Aircraft | C208/L-SDFGRY/C |
Departure
| Time | 2026-04-26 21:16 |
|---|---|
| Airport | Grand Case-l'Espérance Airport (TFFG) |
Arrival
| Time | 2026-04-26 21:25 |
|---|---|
| Airport | St. Jean Airport (TFFJ) |
| Time | Latitude | Longitude | Altitude | Speed | Heading |
|---|---|---|---|---|---|
| 2026-04-26 21:09 | 18.10148 | -63.04793 | 17 ft | 0 kts | 16° |
| 2026-04-26 21:12 | 18.10145 | -63.04822 | 17 ft | 14 kts | 240° |
| 2026-04-26 21:12 | 18.10099 | -63.04876 | 15 ft | 2 kts | 198° |
| 2026-04-26 21:13 | 18.10096 | -63.04876 | 15 ft | 2 kts | 199° |
| 2026-04-26 21:14 | 18.10064 | -63.04905 | 13 ft | 12 kts | 251° |
| 2026-04-26 21:14 | 18.10103 | -63.05043 | 13 ft | 27 kts | 288° |
| 2026-04-26 21:14 | 18.10134 | -63.05172 | 13 ft | 5 kts | 145° |
| 2026-04-26 21:14 | 18.10131 | -63.05165 | 13 ft | 0 kts | 108° |
| 2026-04-26 21:15 | 18.10126 | -63.05149 | 13 ft | 18 kts | 107° |
| 2026-04-26 21:15 | 18.10023 | -63.04793 | 12 ft | 79 kts | 107° |
| 2026-04-26 21:15 | 18.09826 | -63.04167 | 170 ft | 98 kts | 112° |
| 2026-04-26 21:15 | 18.09547 | -63.03452 | 284 ft | 111 kts | 116° |
| 2026-04-26 21:16 | 18.09231 | -63.02754 | 569 ft | 111 kts | 119° |
| 2026-04-26 21:16 | 18.08916 | -63.01977 | 767 ft | 118 kts | 106° |
| 2026-04-26 21:16 | 18.08605 | -63.01186 | 1006 ft | 117 kts | 120° |
| 2026-04-26 21:16 | 18.08063 | -63.00585 | 1232 ft | 117 kts | 159° |
| 2026-04-26 21:17 | 18.07279 | -63.00355 | 1464 ft | 117 kts | 157° |
| 2026-04-26 21:17 | 18.06523 | -63.00025 | 1694 ft | 118 kts | 156° |
| 2026-04-26 21:17 | 18.05759 | -62.99711 | 1925 ft | 118 kts | 157° |
| 2026-04-26 21:17 | 18.04966 | -62.99390 | 1982 ft | 131 kts | 158° |
| 2026-04-26 21:18 | 18.04088 | -62.99036 | 1990 ft | 137 kts | 158° |
| 2026-04-26 21:18 | 18.03186 | -62.98672 | 1990 ft | 139 kts | 158° |
| 2026-04-26 21:18 | 18.02296 | -62.98309 | 1988 ft | 136 kts | 157° |
| 2026-04-26 21:18 | 18.01416 | -62.97950 | 1987 ft | 136 kts | 158° |
| 2026-04-26 21:19 | 18.00529 | -62.97591 | 1986 ft | 136 kts | 158° |
| 2026-04-26 21:19 | 17.99660 | -62.97239 | 1984 ft | 135 kts | 157° |
| 2026-04-26 21:19 | 17.98782 | -62.96883 | 1982 ft | 135 kts | 157° |
| 2026-04-26 21:19 | 17.97903 | -62.96527 | 1982 ft | 135 kts | 158° |
| 2026-04-26 21:20 | 17.97025 | -62.96172 | 1982 ft | 135 kts | 158° |
| 2026-04-26 21:20 | 17.96148 | -62.95817 | 1983 ft | 135 kts | 158° |
| 2026-04-26 21:20 | 17.95271 | -62.95462 | 1982 ft | 135 kts | 158° |
| 2026-04-26 21:20 | 17.94389 | -62.95107 | 1937 ft | 138 kts | 158° |
| 2026-04-26 21:21 | 17.93482 | -62.94740 | 1841 ft | 141 kts | 158° |
| 2026-04-26 21:21 | 17.92561 | -62.94367 | 1744 ft | 142 kts | 158° |
| 2026-04-26 21:21 | 17.91635 | -62.93993 | 1646 ft | 143 kts | 158° |
| 2026-04-26 21:21 | 17.90781 | -62.93487 | 1535 ft | 142 kts | 135° |
| 2026-04-26 21:22 | 17.90292 | -62.92589 | 1431 ft | 144 kts | 108° |
| 2026-04-26 21:22 | 17.90253 | -62.91588 | 1311 ft | 126 kts | 90° |
| 2026-04-26 21:22 | 17.90291 | -62.90747 | 1288 ft | 104 kts | 92° |
| 2026-04-26 21:23 | 17.90324 | -62.89318 | 1292 ft | 101 kts | 93° |
| 2026-04-26 21:23 | 17.90338 | -62.88595 | 1310 ft | 98 kts | 93° |
| 2026-04-26 21:23 | 17.90352 | -62.87896 | 1309 ft | 92 kts | 93° |
| 2026-04-26 21:23 | 17.90375 | -62.87253 | 1156 ft | 83 kts | 92° |
| 2026-04-26 21:24 | 17.90411 | -62.86669 | 918 ft | 80 kts | 90° |
| 2026-04-26 21:24 | 17.90416 | -62.86104 | 690 ft | 77 kts | 98° |
| 2026-04-26 21:24 | 17.90411 | -62.85548 | 498 ft | 74 kts | 93° |
| 2026-04-26 21:24 | 17.90426 | -62.84990 | 270 ft | 77 kts | 92° |
| 2026-04-26 21:25 | 17.90437 | -62.84426 | 35 ft | 72 kts | 91° |
| 2026-04-26 21:25 | 17.90447 | -62.84106 | 14 ft | 10 kts | 86° |
| 2026-04-26 21:25 | 17.90447 | -62.84065 | 13 ft | 5 kts | 245° |
| 2026-04-26 21:25 | 17.90445 | -62.84128 | 14 ft | 15 kts | 268° |
| 2026-04-26 21:26 | 17.90441 | -62.84289 | 23 ft | 29 kts | 269° |
| 2026-04-26 21:26 | 17.90436 | -62.84524 | 42 ft | 28 kts | 268° |
| 2026-04-26 21:26 | 17.90429 | -62.84650 | 52 ft | 8 kts | 236° |
| 2026-04-26 21:26 | 17.90388 | -62.84598 | 49 ft | 13 kts | 104° |
| 2026-04-26 21:27 | 17.90371 | -62.84537 | 43 ft | 3 kts | 88° |
| 2026-04-26 21:27 | 17.90372 | -62.84527 | 42 ft | 2 kts | 90° |
| 2026-04-26 21:27 | 17.90372 | -62.84526 | 42 ft | 0 kts | 90° |